createdAt,value
2023-07-10T00:00:46.993Z,9.242411
2023-07-10T00:01:46.963Z,9.242470
2023-07-10T00:02:46.993Z,9.242407
2023-07-10T00:03:47.017Z,9.242395
2023-07-10T00:04:47.013Z,9.242425
2023-07-10T00:05:46.945Z,9.242312
2023-07-10T00:06:46.954Z,9.242369
2023-07-10T00:07:46.988Z,9.242380
2023-07-10T00:08:46.920Z,9.242414
2023-07-10T00:09:46.914Z,9.242516
2023-07-10T00:10:46.913Z,9.242369
2023-07-10T00:11:46.929Z,9.242315
2023-07-10T00:12:46.894Z,9.242455
2023-07-10T00:13:46.952Z,9.242504
2023-07-10T00:14:46.878Z,9.242330
2023-07-10T00:15:46.879Z,9.242378
2023-07-10T00:16:46.946Z,9.242376
2023-07-10T00:17:46.954Z,9.242443
2023-07-10T00:18:46.850Z,9.242364
2023-07-10T00:19:46.838Z,9.242412
2023-07-10T00:20:46.878Z,9.242390
2023-07-10T00:21:46.844Z,9.242374
2023-07-10T00:22:46.821Z,9.242403
2023-07-10T00:23:46.819Z,9.242395
2023-07-10T00:24:46.789Z,9.242425
2023-07-10T00:25:46.803Z,9.242397
2023-07-10T00:26:46.810Z,9.242422
2023-07-10T00:27:46.778Z,9.242358
2023-07-10T00:28:46.774Z,9.242405
2023-07-10T00:29:46.767Z,9.242381
2023-07-10T00:30:46.870Z,9.242415
2023-07-10T00:31:46.748Z,9.242373
2023-07-10T00:32:46.768Z,9.242360
2023-07-10T00:33:46.743Z,9.242375
2023-07-10T00:34:46.756Z,9.242356
2023-07-10T00:35:46.738Z,9.242377
2023-07-10T00:36:46.715Z,9.242396
2023-07-10T00:37:46.708Z,9.242325
2023-07-10T00:38:46.706Z,9.242365
2023-07-10T00:39:46.738Z,9.242379
2023-07-10T00:40:46.692Z,9.242368
2023-07-10T00:41:46.681Z,9.242323
2023-07-10T00:42:46.674Z,9.242352
2023-07-10T00:43:46.664Z,9.242357
2023-07-10T00:44:46.669Z,9.242401
2023-07-10T00:45:46.745Z,9.242393
2023-07-10T00:46:46.796Z,9.242385
2023-07-10T00:47:46.775Z,9.242410
2023-07-10T00:48:46.727Z,9.242424
2023-07-10T00:49:46.648Z,9.242488
2023-07-10T00:50:46.628Z,9.242417
2023-07-10T00:51:46.615Z,9.242373
2023-07-10T00:52:46.600Z,9.242371
2023-07-10T00:53:46.602Z,9.242358
2023-07-10T00:54:46.609Z,9.242388
2023-07-10T00:55:46.574Z,9.242405
2023-07-10T00:56:46.668Z,9.242430
2023-07-10T00:57:46.577Z,9.242329
2023-07-10T00:58:46.611Z,9.242403
2023-07-10T00:59:46.541Z,9.242435
2023-07-10T01:00:46.581Z,9.242358
2023-07-10T01:01:49.151Z,9.242444
2023-07-10T01:02:47.738Z,9.242397
2023-07-10T01:03:46.532Z,9.242377
2023-07-10T01:04:46.533Z,9.242443
2023-07-10T01:05:46.524Z,9.242354
2023-07-10T01:06:46.503Z,9.242356
2023-07-10T01:07:46.506Z,9.242389
2023-07-10T01:08:46.507Z,9.242448
2023-07-10T01:09:46.475Z,9.242391
2023-07-10T01:10:46.470Z,9.242382
2023-07-10T01:11:46.477Z,9.242344
2023-07-10T01:12:46.471Z,9.242403
2023-07-10T01:13:47.926Z,9.242421
2023-07-10T01:14:46.431Z,9.242464
2023-07-10T01:15:46.447Z,9.242446
2023-07-10T01:16:46.494Z,9.242321
2023-07-10T01:17:46.450Z,9.242445
2023-07-10T01:18:46.412Z,9.242446
2023-07-10T01:19:46.405Z,9.242379
2023-07-10T01:20:47.265Z,9.242421
2023-07-10T01:21:47.118Z,9.242381
2023-07-10T01:22:46.531Z,9.242442
2023-07-10T01:23:47.058Z,9.242355
2023-07-10T01:24:46.421Z,9.242375
2023-07-10T01:25:46.502Z,9.242375
2023-07-10T01:26:47.468Z,9.242388
2023-07-10T01:27:47.159Z,9.242388
2023-07-10T01:28:46.377Z,9.242360
2023-07-10T01:29:46.987Z,9.242399
2023-07-10T01:30:46.708Z,9.242422
2023-07-10T01:31:46.998Z,9.242347
2023-07-10T01:32:47.042Z,9.242402
2023-07-10T01:33:46.434Z,9.242408
2023-07-10T01:34:46.354Z,9.242425
2023-07-10T01:35:46.705Z,9.242398
2023-07-10T01:36:46.429Z,9.242445
2023-07-10T01:37:46.318Z,9.242443
2023-07-10T01:38:46.274Z,9.242423
2023-07-10T01:39:46.303Z,9.242450
2023-07-10T01:40:46.632Z,9.242439
2023-07-10T01:41:46.281Z,9.242392
2023-07-10T01:42:46.272Z,9.242392
2023-07-10T01:43:46.251Z,9.242398
2023-07-10T01:44:46.241Z,9.242366
2023-07-10T01:45:46.247Z,9.242404
2023-07-10T01:46:46.217Z,9.242353
2023-07-10T01:47:46.242Z,9.242319
2023-07-10T01:48:46.325Z,9.242377
2023-07-10T01:49:46.218Z,9.242414
2023-07-10T01:50:48.444Z,9.242438
2023-07-10T01:51:46.964Z,9.242382
2023-07-10T01:52:46.251Z,9.242437
2023-07-10T01:53:46.195Z,9.242466
2023-07-10T01:54:46.196Z,9.242311
2023-07-10T01:55:46.181Z,9.242340
2023-07-10T01:56:46.137Z,9.242324
2023-07-10T01:57:46.150Z,9.242403
2023-07-10T01:58:47.656Z,9.242379
2023-07-10T01:59:46.228Z,9.242361
2023-07-10T02:00:47.957Z,9.242403
2023-07-10T02:01:46.428Z,9.242528
2023-07-10T02:02:47.106Z,9.242470
2023-07-10T02:03:46.328Z,9.242407
2023-07-10T02:04:46.882Z,9.242404
2023-07-10T02:05:46.151Z,9.242400
2023-07-10T02:06:46.305Z,9.242414
2023-07-10T02:07:46.191Z,9.242354
2023-07-10T02:08:46.213Z,9.242409
2023-07-10T02:09:46.246Z,9.242382
2023-07-10T02:10:46.103Z,9.242375
2023-07-10T02:11:46.154Z,9.242359
2023-07-10T02:12:46.907Z,9.242399
2023-07-10T02:13:46.126Z,9.242398
2023-07-10T02:14:46.028Z,9.242351
2023-07-10T02:15:46.190Z,9.242394
2023-07-10T02:16:46.038Z,9.242349
2023-07-10T02:17:46.134Z,9.242390
2023-07-10T02:18:47.698Z,9.242404
2023-07-10T02:19:45.983Z,9.242395
2023-07-10T02:20:45.989Z,9.242371
2023-07-10T02:21:45.997Z,9.242391
2023-07-10T02:22:45.973Z,9.242364
2023-07-10T02:23:45.958Z,9.242351
2023-07-10T02:24:45.938Z,9.242352
2023-07-10T02:25:45.997Z,9.242321
2023-07-10T02:26:45.949Z,9.242298
2023-07-10T02:27:45.930Z,9.242354
2023-07-10T02:28:45.977Z,9.242386
2023-07-10T02:29:45.914Z,9.242393
2023-07-10T02:30:45.934Z,9.242447
2023-07-10T02:31:45.989Z,9.242402
2023-07-10T02:32:45.903Z,9.242439
2023-07-10T02:33:45.903Z,9.242340
2023-07-10T02:34:45.891Z,9.242345
2023-07-10T02:35:45.891Z,9.242380
2023-07-10T02:36:46.215Z,9.242374
2023-07-10T02:37:46.081Z,9.242401
2023-07-10T02:38:46.009Z,9.242401
2023-07-10T02:39:46.105Z,9.242446
2023-07-10T02:40:45.915Z,9.242431
2023-07-10T02:41:45.914Z,9.242408
2023-07-10T02:42:46.285Z,9.242390
2023-07-10T02:43:45.874Z,9.242422
2023-07-10T02:44:45.897Z,9.242368
2023-07-10T02:45:45.942Z,9.242379
2023-07-10T02:46:45.889Z,9.242315
2023-07-10T02:47:45.943Z,9.242383
2023-07-10T02:48:45.845Z,9.242361
2023-07-10T02:49:45.886Z,9.242441
2023-07-10T02:50:45.852Z,9.242436
2023-07-10T02:51:45.853Z,9.242373
2023-07-10T02:52:45.760Z,9.242314
2023-07-10T02:53:45.767Z,9.242364
2023-07-10T02:54:45.786Z,9.242359
2023-07-10T02:55:46.535Z,9.242457
2023-07-10T02:56:45.727Z,9.242388
2023-07-10T02:57:45.755Z,9.242369
2023-07-10T02:58:45.735Z,9.242327
2023-07-10T02:59:45.731Z,9.242347
2023-07-10T03:00:45.810Z,9.242434
2023-07-10T03:01:45.691Z,9.242405
2023-07-10T03:02:45.787Z,9.242416
2023-07-10T03:03:45.697Z,9.242455
2023-07-10T03:04:45.706Z,9.242463
2023-07-10T03:05:45.669Z,9.242393
2023-07-10T03:06:45.665Z,9.242418
2023-07-10T03:07:45.752Z,9.242369
2023-07-10T03:08:45.660Z,9.242407
2023-07-10T03:09:45.652Z,9.242404
2023-07-10T03:10:45.649Z,9.242411
2023-07-10T03:11:45.642Z,9.242438
2023-07-10T03:12:45.642Z,9.242395
2023-07-10T03:13:45.634Z,9.242402
2023-07-10T03:14:45.760Z,9.242449
2023-07-10T03:15:47.133Z,9.242381
2023-07-10T03:16:46.035Z,9.242388
2023-07-10T03:17:45.639Z,9.242389
2023-07-10T03:18:45.586Z,9.242392
2023-07-10T03:19:45.598Z,9.242374
2023-07-10T03:20:45.567Z,9.242372
2023-07-10T03:21:45.584Z,9.242427
2023-07-10T03:22:46.500Z,9.242399
2023-07-10T03:23:46.474Z,9.242422
2023-07-10T03:24:46.460Z,9.242393
2023-07-10T03:25:46.456Z,9.242356
2023-07-10T03:26:46.497Z,9.242358
2023-07-10T03:27:45.624Z,9.242370
2023-07-10T03:28:46.464Z,9.242375
2023-07-10T03:29:46.446Z,9.242409
2023-07-10T03:30:45.521Z,9.242449
2023-07-10T03:31:45.627Z,9.242461
2023-07-10T03:32:45.563Z,9.242393
2023-07-10T03:33:45.497Z,9.242398
2023-07-10T03:34:45.474Z,9.242345
2023-07-10T03:35:45.513Z,9.242374
2023-07-10T03:36:45.465Z,9.242371
2023-07-10T03:37:45.464Z,9.242382
2023-07-10T03:38:45.509Z,9.242344
2023-07-10T03:39:45.521Z,9.242376
2023-07-10T03:40:45.451Z,9.242397
2023-07-10T03:41:45.430Z,9.242390
2023-07-10T03:42:45.447Z,9.242372
2023-07-10T03:43:45.417Z,9.242357
2023-07-10T03:44:45.471Z,9.242357
2023-07-10T03:45:45.426Z,9.242363
2023-07-10T03:46:45.418Z,9.242347
2023-07-10T03:47:45.495Z,9.242377
2023-07-10T03:48:45.399Z,9.242403
2023-07-10T03:49:45.389Z,9.242422
2023-07-10T03:50:45.382Z,9.242397
2023-07-10T03:51:45.369Z,9.242369
2023-07-10T03:52:45.347Z,9.242379
2023-07-10T03:53:45.363Z,9.242440
2023-07-10T03:54:45.348Z,9.242444
2023-07-10T03:55:45.337Z,9.242420
2023-07-10T03:56:45.313Z,9.242375
2023-07-10T03:57:45.316Z,9.242376
2023-07-10T03:58:45.333Z,9.242415
2023-07-10T03:59:45.317Z,9.242374
2023-07-10T04:00:45.330Z,9.242333
2023-07-10T04:01:45.277Z,9.242364
2023-07-10T04:02:45.322Z,9.242403
2023-07-10T04:03:45.401Z,9.242376
2023-07-10T04:04:45.269Z,9.242382
2023-07-10T04:05:45.258Z,9.242421
2023-07-10T04:06:45.324Z,9.242337
2023-07-10T04:07:45.257Z,9.242368
2023-07-10T04:08:45.255Z,9.242388
2023-07-10T04:09:45.235Z,9.242454
2023-07-10T04:10:45.225Z,9.242435
2023-07-10T04:11:45.206Z,9.242418
2023-07-10T04:12:45.237Z,9.242321
2023-07-10T04:13:45.233Z,9.242343
2023-07-10T04:14:45.200Z,9.242307
2023-07-10T04:15:45.181Z,9.242409
2023-07-10T04:16:45.233Z,9.242450
2023-07-10T04:17:45.225Z,9.242363
2023-07-10T04:18:45.170Z,9.242398
2023-07-10T04:19:45.162Z,9.242467
2023-07-10T04:20:45.156Z,9.242492
2023-07-10T04:21:45.162Z,9.242469
2023-07-10T04:22:45.138Z,9.242449
2023-07-10T04:23:45.143Z,9.242414
2023-07-10T04:24:45.137Z,9.242367
2023-07-10T04:25:45.119Z,9.242602
2023-07-10T04:26:45.134Z,9.242481
2023-07-10T04:27:45.100Z,9.242396
2023-07-10T04:28:45.106Z,9.242301
2023-07-10T04:29:45.102Z,9.242347
2023-07-10T04:30:45.163Z,9.242430
2023-07-10T04:31:45.108Z,9.242007
2023-07-10T04:32:45.116Z,9.242094
2023-07-10T04:33:45.086Z,9.242228
2023-07-10T04:34:45.055Z,9.242289
2023-07-10T04:35:45.057Z,9.242208
2023-07-10T04:36:45.054Z,9.242207
2023-07-10T04:37:45.035Z,9.242218
2023-07-10T04:38:45.047Z,9.242211
2023-07-10T04:39:46.368Z,9.242311
2023-07-10T04:40:46.041Z,9.242365
2023-07-10T04:41:45.011Z,9.242291
2023-07-10T04:42:45.012Z,9.242349
2023-07-10T04:43:45.007Z,9.242306
2023-07-10T04:44:45.008Z,9.242392
2023-07-10T04:45:45.005Z,9.242402
2023-07-10T04:46:45.053Z,9.242370
2023-07-10T04:47:45.066Z,9.242303
2023-07-10T04:48:45.535Z,9.242344
2023-07-10T04:49:45.012Z,9.242375
2023-07-10T04:50:45.007Z,9.242472
2023-07-10T04:51:44.946Z,9.242428
2023-07-10T04:52:44.947Z,9.242449
2023-07-10T04:53:44.934Z,9.242451
2023-07-10T04:54:44.929Z,9.242416
2023-07-10T04:55:44.916Z,9.242357
2023-07-10T04:56:44.899Z,9.242363
2023-07-10T04:57:44.906Z,9.242367
2023-07-10T04:58:44.924Z,9.242314
2023-07-10T04:59:44.905Z,9.242431
2023-07-10T05:00:44.881Z,9.242402
2023-07-10T05:01:44.917Z,9.242322
2023-07-10T05:02:44.927Z,9.242332
2023-07-10T05:03:44.880Z,9.242282
2023-07-10T05:04:44.887Z,9.242337
2023-07-10T05:05:44.829Z,9.242269
2023-07-10T05:06:44.834Z,9.242325
2023-07-10T05:07:44.836Z,9.242279
2023-07-10T05:08:44.826Z,9.242313
2023-07-10T05:09:44.822Z,9.242400
2023-07-10T05:10:44.804Z,9.242421
2023-07-10T05:11:44.849Z,9.242419
2023-07-10T05:12:44.801Z,9.242320
2023-07-10T05:13:44.885Z,9.242283
2023-07-10T05:14:44.777Z,9.242316
2023-07-10T05:15:44.770Z,9.242285
2023-07-10T05:16:44.863Z,9.242272
2023-07-10T05:17:44.815Z,9.242295
2023-07-10T05:18:44.749Z,9.242335
2023-07-10T05:19:44.765Z,9.242328
2023-07-10T05:20:44.728Z,9.242345
2023-07-10T05:21:44.735Z,9.242329
2023-07-10T05:22:44.758Z,9.242361
2023-07-10T05:23:44.712Z,9.242340
2023-07-10T05:24:44.722Z,9.242373
2023-07-10T05:25:44.701Z,9.242311
2023-07-10T05:26:44.740Z,9.242363
2023-07-10T05:27:44.704Z,9.242260
2023-07-10T05:28:44.684Z,9.242251
2023-07-10T05:29:44.703Z,9.242264
2023-07-10T05:30:44.686Z,9.242219
2023-07-10T05:31:44.733Z,9.242321
2023-07-10T05:32:44.727Z,9.242359
2023-07-10T05:33:44.626Z,9.242329
2023-07-10T05:34:44.650Z,9.242402
2023-07-10T05:35:44.639Z,9.242362
2023-07-10T05:36:44.601Z,9.242362
2023-07-10T05:37:44.598Z,9.242338
2023-07-10T05:38:44.638Z,9.242402
2023-07-10T05:39:44.587Z,9.242419
2023-07-10T05:40:44.584Z,9.242467
2023-07-10T05:41:44.576Z,9.242453
2023-07-10T05:42:44.582Z,9.242368
2023-07-10T05:43:44.553Z,9.242205
2023-07-10T05:44:44.572Z,9.242263
2023-07-10T05:45:44.628Z,9.242376
2023-07-10T05:46:44.609Z,9.242400
2023-07-10T05:47:44.547Z,9.242402
2023-07-10T05:48:44.529Z,9.242312
2023-07-10T05:49:44.531Z,9.242284
2023-07-10T05:50:44.548Z,9.242304
2023-07-10T05:51:44.498Z,9.242454
2023-07-10T05:52:44.508Z,9.242522
2023-07-10T05:53:44.496Z,9.242438
2023-07-10T05:54:44.503Z,9.242394
2023-07-10T05:55:44.500Z,9.242449
2023-07-10T05:56:44.496Z,9.242449
2023-07-10T05:57:44.474Z,9.242279
2023-07-10T05:58:44.448Z,9.242353
2023-07-10T05:59:44.485Z,9.242350
2023-07-10T06:00:44.443Z,9.242374
2023-07-10T06:01:44.475Z,9.242380
2023-07-10T06:02:44.468Z,9.242436
2023-07-10T06:03:44.573Z,9.242461
2023-07-10T06:04:44.422Z,9.242454
2023-07-10T06:05:44.429Z,9.242480
2023-07-10T06:06:44.412Z,9.242487
2023-07-10T06:07:44.390Z,9.242518
2023-07-10T06:08:44.402Z,9.242445
2023-07-10T06:09:44.375Z,9.242492
2023-07-10T06:10:44.370Z,9.242509
2023-07-10T06:11:44.392Z,9.242411
2023-07-10T06:12:44.361Z,9.242371
2023-07-10T06:13:44.359Z,9.242373
2023-07-10T06:14:44.344Z,9.242380
2023-07-10T06:15:44.372Z,9.242471
2023-07-10T06:16:44.356Z,9.242492
2023-07-10T06:17:44.339Z,9.242457
2023-07-10T06:18:44.329Z,9.242542
2023-07-10T06:19:44.311Z,9.242491
2023-07-10T06:20:44.317Z,9.242464
2023-07-10T06:21:44.294Z,9.242490
2023-07-10T06:22:44.298Z,9.242348
2023-07-10T06:23:45.264Z,9.242314
2023-07-10T06:24:44.274Z,9.242439
2023-07-10T06:25:44.290Z,9.242435
2023-07-10T06:26:44.267Z,9.242463
2023-07-10T06:27:44.282Z,9.242417
2023-07-10T06:28:44.254Z,9.242450
2023-07-10T06:29:44.229Z,9.242382
2023-07-10T06:30:44.218Z,9.242352
2023-07-10T06:31:44.345Z,9.242413
2023-07-10T06:32:44.245Z,9.242444
2023-07-10T06:33:44.209Z,9.242374
2023-07-10T06:34:44.204Z,9.242447
2023-07-10T06:35:44.182Z,9.242404
2023-07-10T06:36:44.199Z,9.242427
2023-07-10T06:37:44.201Z,9.242400
2023-07-10T06:38:44.165Z,9.242460
2023-07-10T06:39:44.155Z,9.242438
2023-07-10T06:40:44.192Z,9.242472
2023-07-10T06:41:44.169Z,9.242461
2023-07-10T06:42:44.189Z,9.242449
2023-07-10T06:43:44.151Z,9.242426
2023-07-10T06:44:44.121Z,9.242430
2023-07-10T06:45:44.197Z,9.242414
2023-07-10T06:46:44.226Z,9.242423
2023-07-10T06:47:44.377Z,9.242420
2023-07-10T06:48:44.129Z,9.242355
2023-07-10T06:49:44.101Z,9.242356
2023-07-10T06:50:44.110Z,9.242348
2023-07-10T06:51:44.076Z,9.242411
2023-07-10T06:52:44.093Z,9.242403
2023-07-10T06:53:44.070Z,9.242392
2023-07-10T06:54:44.076Z,9.242430
2023-07-10T06:55:44.085Z,9.242411
2023-07-10T06:56:44.042Z,9.242423
2023-07-10T06:57:44.077Z,9.242386
2023-07-10T06:58:44.040Z,9.242373
2023-07-10T06:59:44.061Z,9.242340
2023-07-10T07:00:44.047Z,9.242324
2023-07-10T07:01:44.069Z,9.242367
2023-07-10T07:02:44.046Z,9.242327
2023-07-10T07:03:44.075Z,9.242379
2023-07-10T07:04:44.040Z,9.242401
2023-07-10T07:05:43.986Z,9.242405
2023-07-10T07:06:43.990Z,9.242436
2023-07-10T07:07:43.960Z,9.242339
2023-07-10T07:08:44.004Z,9.242337
2023-07-10T07:09:43.986Z,9.242402
2023-07-10T07:10:43.988Z,9.242454
2023-07-10T07:11:43.963Z,9.242448
2023-07-10T07:12:43.963Z,9.242433
2023-07-10T07:13:44.089Z,9.242409
2023-07-10T07:14:43.921Z,9.242409
2023-07-10T07:15:44.010Z,9.242293
2023-07-10T07:16:43.922Z,9.242343
2023-07-10T07:17:43.950Z,9.242383
2023-07-10T07:18:44.202Z,9.242386
2023-07-10T07:19:43.877Z,9.242374
2023-07-10T07:20:43.881Z,9.242276
2023-07-10T07:21:43.892Z,9.242349
2023-07-10T07:22:43.894Z,9.242385
2023-07-10T07:23:43.861Z,9.242350
2023-07-10T07:24:43.885Z,9.242381
2023-07-10T07:25:43.890Z,9.242376
2023-07-10T07:26:43.877Z,9.242369
2023-07-10T07:27:43.881Z,9.242363
2023-07-10T07:28:43.833Z,9.242389
2023-07-10T07:29:43.889Z,9.242356
2023-07-10T07:30:43.868Z,9.242296
2023-07-10T07:31:43.831Z,9.242341
2023-07-10T07:32:43.868Z,9.242346
2023-07-10T07:33:43.804Z,9.242282
2023-07-10T07:34:43.793Z,9.242340
2023-07-10T07:35:44.037Z,9.242371
2023-07-10T07:36:43.837Z,9.242374
2023-07-10T07:37:43.769Z,9.242419
2023-07-10T07:38:43.751Z,9.242354
2023-07-10T07:39:43.760Z,9.242318
2023-07-10T07:40:43.744Z,9.242322
2023-07-10T07:41:43.741Z,9.242297
2023-07-10T07:42:43.731Z,9.242324
2023-07-10T07:43:43.718Z,9.242412
2023-07-10T07:44:43.712Z,9.242471
2023-07-10T07:45:43.735Z,9.242502
2023-07-10T07:46:43.714Z,9.242280
2023-07-10T07:47:43.827Z,9.242324
2023-07-10T07:48:43.693Z,9.242351
2023-07-10T07:49:43.692Z,9.242362
2023-07-10T07:50:43.701Z,9.242482
2023-07-10T07:51:43.708Z,9.242369
2023-07-10T07:52:43.717Z,9.242342
2023-07-10T07:53:43.642Z,9.242409
2023-07-10T07:54:43.641Z,9.242310
2023-07-10T07:55:43.673Z,9.242277
2023-07-10T07:56:43.629Z,9.242315
2023-07-10T07:57:43.643Z,9.242337
2023-07-10T07:58:43.626Z,9.242302
2023-07-10T07:59:43.641Z,9.242196
2023-07-10T08:00:43.653Z,9.242329
2023-07-10T08:01:43.591Z,9.242237
2023-07-10T08:02:43.633Z,9.242273
2023-07-10T08:03:43.712Z,9.242354
2023-07-10T08:04:43.677Z,9.242339
2023-07-10T08:05:43.628Z,9.242525
2023-07-10T08:06:44.625Z,9.242397
2023-07-10T08:07:44.570Z,9.242339
2023-07-10T08:08:43.554Z,9.242317
2023-07-10T08:09:43.550Z,9.242343
2023-07-10T08:10:43.561Z,9.242328
2023-07-10T08:11:43.525Z,9.242427
2023-07-10T08:12:43.516Z,9.242359
2023-07-10T08:13:43.609Z,9.242327
2023-07-10T08:14:43.524Z,9.242343
2023-07-10T08:15:43.489Z,9.242345
2023-07-10T08:16:43.563Z,9.242373
2023-07-10T08:17:43.509Z,9.242369
2023-07-10T08:18:43.534Z,9.242347
2023-07-10T08:19:43.483Z,9.242337
2023-07-10T08:20:43.490Z,9.242276
2023-07-10T08:21:43.451Z,9.242206
2023-07-10T08:22:43.499Z,9.242134
2023-07-10T08:23:43.468Z,9.242269
2023-07-10T08:24:43.445Z,9.242352
2023-07-10T08:25:43.444Z,9.242381
2023-07-10T08:26:43.439Z,9.242376
2023-07-10T08:27:43.433Z,9.242395
2023-07-10T08:28:43.419Z,9.242435
2023-07-10T08:29:43.398Z,9.242364
2023-07-10T08:30:43.421Z,9.242385
2023-07-10T08:31:43.403Z,9.242333
2023-07-10T08:32:43.438Z,9.242368
2023-07-10T08:33:43.367Z,9.242378
2023-07-10T08:34:43.388Z,9.242383
2023-07-10T08:35:43.382Z,9.242389
2023-07-10T08:36:43.365Z,9.242395
2023-07-10T08:37:43.370Z,9.242421
2023-07-10T08:38:43.337Z,9.242431
2023-07-10T08:39:43.376Z,9.242370
2023-07-10T08:40:43.326Z,9.242409
2023-07-10T08:41:43.314Z,9.242397
2023-07-10T08:42:43.323Z,9.242300
2023-07-10T08:43:43.334Z,9.242387
2023-07-10T08:44:43.287Z,9.242420
2023-07-10T08:45:44.286Z,9.242342
2023-07-10T08:46:43.354Z,9.242359
2023-07-10T08:47:43.373Z,9.242387
2023-07-10T08:48:43.268Z,9.242393
2023-07-10T08:49:43.281Z,9.242350
2023-07-10T08:50:43.266Z,9.242328
2023-07-10T08:51:43.268Z,9.242373
2023-07-10T08:52:43.245Z,9.242391
2023-07-10T08:53:43.289Z,9.242349
2023-07-10T08:54:43.236Z,9.242367
2023-07-10T08:55:43.238Z,9.242374
2023-07-10T08:56:43.218Z,9.242332
2023-07-10T08:57:44.416Z,9.242343
2023-07-10T08:58:43.203Z,9.242336
2023-07-10T08:59:43.199Z,9.242393
2023-07-10T09:00:43.211Z,9.242352
2023-07-10T09:01:43.202Z,9.242449
2023-07-10T09:02:43.274Z,9.242430
2023-07-10T09:03:43.173Z,9.242397
2023-07-10T09:04:43.187Z,9.242373
2023-07-10T09:05:43.174Z,9.242428
2023-07-10T09:06:43.153Z,9.242423
2023-07-10T09:07:43.153Z,9.242403
2023-07-10T09:08:43.130Z,9.242492
2023-07-10T09:09:43.148Z,9.242516
2023-07-10T09:10:43.114Z,9.242463
2023-07-10T09:11:43.111Z,9.242500
2023-07-10T09:12:43.113Z,9.242395
2023-07-10T09:13:43.155Z,9.242428
2023-07-10T09:14:43.137Z,9.242408
2023-07-10T09:15:43.107Z,9.242403
2023-07-10T09:16:43.100Z,9.242438
2023-07-10T09:17:43.148Z,9.242422
2023-07-10T09:18:43.080Z,9.242393
2023-07-10T09:19:43.080Z,9.242374
2023-07-10T09:20:43.072Z,9.242436
2023-07-10T09:21:43.057Z,9.242373
2023-07-10T09:22:43.050Z,9.242370
2023-07-10T09:23:43.068Z,9.242350
2023-07-10T09:24:43.030Z,9.242358
2023-07-10T09:25:43.024Z,9.242341
2023-07-10T09:26:43.045Z,9.242341
2023-07-10T09:27:43.054Z,9.242352
2023-07-10T09:28:43.264Z,9.242367
2023-07-10T09:29:43.007Z,9.242351
2023-07-10T09:30:42.990Z,9.242337
2023-07-10T09:31:42.999Z,9.242348
2023-07-10T09:32:43.039Z,9.242332
2023-07-10T09:33:43.053Z,9.242297
2023-07-10T09:34:42.954Z,9.242323
2023-07-10T09:35:42.956Z,9.242301
2023-07-10T09:36:43.124Z,9.242324
2023-07-10T09:37:42.958Z,9.242326
2023-07-10T09:38:42.957Z,9.242360
2023-07-10T09:39:42.929Z,9.242326
2023-07-10T09:40:42.959Z,9.242337
2023-07-10T09:41:42.909Z,9.242291
2023-07-10T09:42:42.945Z,9.242289
2023-07-10T09:43:42.975Z,9.242300
2023-07-10T09:44:42.893Z,9.242285
2023-07-10T09:45:42.920Z,9.242356
2023-07-10T09:46:43.055Z,9.242371
2023-07-10T09:47:42.933Z,9.242325
2023-07-10T09:48:42.873Z,9.242344
2023-07-10T09:49:42.866Z,9.242374
2023-07-10T09:50:42.860Z,9.242370
2023-07-10T09:51:42.844Z,9.242367
2023-07-10T09:52:42.896Z,9.242353
2023-07-10T09:53:42.828Z,9.242322
2023-07-10T09:54:42.821Z,9.242371
2023-07-10T09:55:42.853Z,9.242342
2023-07-10T09:56:42.798Z,9.242327
2023-07-10T09:57:42.809Z,9.242354
2023-07-10T09:58:42.810Z,9.242367
2023-07-10T09:59:42.785Z,9.242326
2023-07-10T10:00:42.808Z,9.242369
2023-07-10T10:01:42.841Z,9.242255
2023-07-10T10:02:42.793Z,9.242281
2023-07-10T10:03:42.885Z,9.242287
2023-07-10T10:04:42.779Z,9.242316
2023-07-10T10:05:42.765Z,9.242260
2023-07-10T10:06:43.846Z,9.242358
2023-07-10T10:07:42.777Z,9.242290
2023-07-10T10:08:42.727Z,9.242334
2023-07-10T10:09:42.825Z,9.242318
2023-07-10T10:10:42.754Z,9.242244
2023-07-10T10:11:42.708Z,9.242238
2023-07-10T10:12:42.719Z,9.242224
2023-07-10T10:13:42.751Z,9.242207
2023-07-10T10:14:42.705Z,9.242167
2023-07-10T10:15:42.690Z,9.242076
2023-07-10T10:16:42.695Z,9.242048
2023-07-10T10:17:42.791Z,9.242074
2023-07-10T10:18:42.861Z,9.242188
2023-07-10T10:19:42.689Z,9.242296
2023-07-10T10:20:42.669Z,9.242227
2023-07-10T10:21:42.641Z,9.242269
2023-07-10T10:22:42.637Z,9.242376
2023-07-10T10:23:42.659Z,9.242390
2023-07-10T10:24:42.623Z,9.242344
2023-07-10T10:25:42.643Z,9.242377
2023-07-10T10:26:42.641Z,9.242359
2023-07-10T10:27:42.636Z,9.242338
2023-07-10T10:28:42.618Z,9.242184
2023-07-10T10:29:42.609Z,9.242311
2023-07-10T10:30:42.575Z,9.242332
2023-07-10T10:31:42.645Z,9.242329
2023-07-10T10:32:42.680Z,9.242314
2023-07-10T10:33:42.569Z,9.242266
2023-07-10T10:34:42.556Z,9.242272
2023-07-10T10:35:42.560Z,9.242281
2023-07-10T10:36:42.556Z,9.242387
2023-07-10T10:37:42.552Z,9.242361
2023-07-10T10:38:42.544Z,9.242276
2023-07-10T10:39:42.543Z,9.242171
2023-07-10T10:40:42.517Z,9.242153
2023-07-10T10:41:42.525Z,9.242229
2023-07-10T10:42:42.502Z,9.242290
2023-07-10T10:43:42.498Z,9.242214
2023-07-10T10:44:42.537Z,9.242326
2023-07-10T10:45:42.497Z,9.242421
2023-07-10T10:46:42.492Z,9.242546
2023-07-10T10:47:42.502Z,9.242403
2023-07-10T10:48:42.481Z,9.242424
2023-07-10T10:49:42.449Z,9.242412
2023-07-10T10:50:42.468Z,9.242403
2023-07-10T10:51:42.474Z,9.242465
2023-07-10T10:52:42.425Z,9.242477
2023-07-10T10:53:42.421Z,9.242426
2023-07-10T10:54:42.420Z,9.242391
2023-07-10T10:55:42.439Z,9.242401
2023-07-10T10:56:42.428Z,9.242242
2023-07-10T10:57:42.396Z,9.242290
2023-07-10T10:58:42.407Z,9.242337
2023-07-10T10:59:42.387Z,9.242391
2023-07-10T11:00:42.402Z,9.242365
2023-07-10T11:01:42.441Z,9.242362
2023-07-10T11:02:42.461Z,9.242414
2023-07-10T11:03:42.389Z,9.242424
2023-07-10T11:04:42.360Z,9.242424
2023-07-10T11:05:42.379Z,9.242365
2023-07-10T11:06:42.339Z,9.242266
2023-07-10T11:07:42.330Z,9.242332
2023-07-10T11:08:42.325Z,9.242304
2023-07-10T11:09:42.331Z,9.242292
2023-07-10T11:10:42.323Z,9.242277
2023-07-10T11:11:42.314Z,9.242358
2023-07-10T11:12:42.308Z,9.242326
2023-07-10T11:13:42.358Z,9.242345
2023-07-10T11:14:42.316Z,9.242388
2023-07-10T11:15:42.275Z,9.242352
2023-07-10T11:16:42.274Z,9.242336
2023-07-10T11:17:42.339Z,9.242340
2023-07-10T11:18:42.247Z,9.242345
2023-07-10T11:19:43.267Z,9.242377
2023-07-10T11:20:42.243Z,9.242403
2023-07-10T11:21:42.225Z,9.242379
2023-07-10T11:22:42.222Z,9.242387
2023-07-10T11:23:42.232Z,9.242305
2023-07-10T11:24:42.207Z,9.242259
2023-07-10T11:25:42.210Z,9.242311
2023-07-10T11:26:42.199Z,9.242362
2023-07-10T11:27:42.208Z,9.242469
2023-07-10T11:28:43.278Z,9.242642
2023-07-10T11:29:42.197Z,9.242332
2023-07-10T11:30:42.151Z,9.242276
2023-07-10T11:31:42.452Z,9.242324
2023-07-10T11:32:42.168Z,9.242408
2023-07-10T11:33:42.174Z,9.242428
2023-07-10T11:34:42.157Z,9.242225
2023-07-10T11:35:42.161Z,9.242315
2023-07-10T11:36:42.125Z,9.242423
2023-07-10T11:37:42.146Z,9.242360
2023-07-10T11:38:42.110Z,9.242373
2023-07-10T11:39:42.162Z,9.242367
2023-07-10T11:40:42.109Z,9.242415
2023-07-10T11:41:42.096Z,9.242434
2023-07-10T11:42:42.943Z,9.242381
2023-07-10T11:43:42.074Z,9.242429
2023-07-10T11:44:42.101Z,9.242383